Time;durP1;ratioP1;P1;durP2;ratioP2;P2;SDS_P1;SDS_P2;PMS_P1;PMS_P2;Temp;Humidity;BMP_temperature;BMP_pressure;BME280_temperature;BME280_humidity;BME280_pressure;Samples;Min_cycle;Max_cycle;Signal;HPM_P1;HPM_P2
2023/12/02 00:01:30;;;;;;;1.10;1.10;;;;;;;-0.50;87.10;97159.25;4998973;28;20133;-77
2023/12/02 00:03:56;;;;;;;1.10;1.10;;;;;;;-0.50;87.19;97156.66;5000312;28;20053;-77
2023/12/02 00:06:21;;;;;;;1.20;1.20;;;;;;;-0.52;87.62;97155.69;5001568;28;20415;-77
2023/12/02 00:08:47;;;;;;;1.10;1.10;;;;;;;-0.60;87.72;97143.94;5001407;28;20046;-76
2023/12/02 00:11:12;;;;;;;1.10;1.10;;;;;;;-0.57;87.84;97149.34;5000042;28;20046;-77
2023/12/02 00:13:38;;;;;;;1.10;1.10;;;;;;;-0.58;87.35;97150.16;5001555;28;20556;-77
2023/12/02 00:16:05;;;;;;;1.10;1.10;;;;;;;-0.63;87.83;97138.56;4999507;28;20033;-77
2023/12/02 00:18:30;;;;;;;1.10;1.10;;;;;;;-0.65;87.44;97142.84;5002495;28;20551;-77
2023/12/02 00:20:56;;;;;;;1.10;1.10;;;;;;;-0.58;87.58;97139.66;5003057;28;20050;-76
2023/12/02 00:23:21;;;;;;;1.10;1.10;;;;;;;-0.64;87.53;97150.75;5000905;28;20034;-76
2023/12/02 00:25:47;;;;;;;1.10;1.10;;;;;;;-0.62;87.38;97154.38;4985351;28;20472;-76
2023/12/02 00:28:12;;;;;;;1.00;1.00;;;;;;;-0.59;87.76;97154.50;5000479;28;20061;-77
2023/12/02 00:30:38;;;;;;;1.10;1.10;;;;;;;-0.64;87.58;97155.09;5001648;28;20500;-77
2023/12/02 00:33:03;;;;;;;1.10;1.10;;;;;;;-0.65;87.85;97161.19;5002214;28;20072;-77
2023/12/02 00:35:28;;;;;;;1.10;1.10;;;;;;;-0.71;88.06;97180.13;5000942;28;20049;-77
2023/12/02 00:37:54;;;;;;;1.10;1.10;;;;;;;-0.70;87.61;97175.78;5006149;28;20046;-77
2023/12/02 00:40:19;;;;;;;1.20;1.20;;;;;;;-0.62;87.63;97172.69;5006925;28;20065;-77
2023/12/02 00:42:45;;;;;;;1.20;1.20;;;;;;;-0.74;87.81;97185.19;5005825;28;20583;-77
2023/12/02 00:45:10;;;;;;;1.10;1.10;;;;;;;-0.72;87.69;97174.78;5006317;28;20491;-77
2023/12/02 00:47:36;;;;;;;1.10;1.10;;;;;;;-0.63;87.24;97170.00;5004169;28;20041;-77
2023/12/02 00:50:04;;;;;;;1.10;1.10;;;;;;;-0.66;87.71;97190.81;5007215;28;20038;-77
2023/12/02 00:52:30;;;;;;;1.10;1.10;;;;;;;-0.68;87.74;97203.81;5007138;28;20041;-77
2023/12/02 00:54:55;;;;;;;1.10;1.10;;;;;;;-0.73;87.54;97197.47;5002189;28;20499;-77
2023/12/02 00:57:21;;;;;;;1.10;1.10;;;;;;;-0.70;87.86;97196.72;5000323;28;20048;-77
2023/12/02 00:59:46;;;;;;;1.10;1.10;;;;;;;-0.65;87.17;97196.13;5001887;28;20393;-77
2023/12/02 01:02:11;;;;;;;1.00;1.00;;;;;;;-0.61;87.05;97189.31;5001379;28;20037;-77
2023/12/02 01:04:37;;;;;;;1.10;1.10;;;;;;;-0.66;87.03;97189.09;5003978;28;20045;-77
2023/12/02 01:07:02;;;;;;;1.10;1.10;;;;;;;-0.72;87.30;97191.38;5004035;28;20390;-76
2023/12/02 01:09:28;;;;;;;1.10;1.10;;;;;;;-0.72;87.15;97191.38;5001669;28;20042;-76
2023/12/02 01:11:53;;;;;;;1.13;1.13;;;;;;;-0.72;86.95;97183.53;5001195;28;20328;-77
2023/12/02 01:14:19;;;;;;;1.10;1.10;;;;;;;-0.75;88.33;97188.66;5000480;28;20088;-76
2023/12/02 01:16:44;;;;;;;1.10;1.10;;;;;;;-0.78;87.72;97183.25;5001593;28;20046;-76
2023/12/02 01:19:09;;;;;;;1.10;1.10;;;;;;;-0.83;87.94;97193.50;5003004;28;20037;-76
2023/12/02 01:21:35;;;;;;;1.20;1.20;;;;;;;-0.79;86.93;97194.56;4999072;28;20043;-76
2023/12/02 01:24:00;;;;;;;1.15;1.15;;;;;;;-0.83;86.82;97188.28;4998212;28;20088;-77
2023/12/02 01:26:25;;;;;;;1.10;1.10;;;;;;;-0.81;87.38;97191.88;5001528;28;20704;-77
2023/12/02 01:28:51;;;;;;;1.10;1.10;;;;;;;-0.81;86.56;97190.97;5017949;28;20054;-76
2023/12/02 01:31:16;;;;;;;1.13;1.13;;;;;;;-0.82;87.33;97187.44;5002942;28;20038;-77
2023/12/02 01:33:42;;;;;;;1.10;1.10;;;;;;;-0.86;87.58;97193.38;4999922;28;20034;-77
2023/12/02 01:36:12;;;;;;;1.10;1.10;;;;;;;-0.87;87.19;97202.03;4999833;28;20483;-76
2023/12/02 01:38:38;;;;;;;1.20;1.20;;;;;;;-0.88;87.27;97205.47;4999488;28;20049;-77
2023/12/02 01:41:03;;;;;;;1.10;1.10;;;;;;;-0.86;87.14;97214.31;5001314;28;20041;-77
2023/12/02 01:43:31;;;;;;;1.10;1.10;;;;;;;-0.88;87.20;97210.72;5001004;28;20104;-77
2023/12/02 01:45:57;;;;;;;1.10;1.10;;;;;;;-0.87;87.40;97215.13;4996501;28;20046;-77
2023/12/02 01:48:26;;;;;;;1.10;1.10;;;;;;;-0.88;87.34;97226.41;4996111;28;20483;-77
2023/12/02 01:50:52;;;;;;;1.10;1.10;;;;;;;-0.91;87.58;97228.91;4998388;28;20566;-77
2023/12/02 01:53:17;;;;;;;1.10;1.10;;;;;;;-0.90;87.22;97229.81;4995466;28;20046;-77
2023/12/02 01:55:44;;;;;;;1.10;1.10;;;;;;;-0.84;86.74;97219.63;5000294;28;20057;-77
2023/12/02 01:58:10;;;;;;;1.10;1.10;;;;;;;-0.86;87.22;97218.66;5002016;28;20034;-77
2023/12/02 02:00:37;;;;;;;1.10;1.10;;;;;;;-0.83;87.05;97217.06;4997289;28;20041;-77
2023/12/02 02:03:03;;;;;;;1.10;1.10;;;;;;;-0.87;87.75;97217.75;5000093;28;20045;-77
2023/12/02 02:05:29;;;;;;;1.10;1.10;;;;;;;-0.87;87.46;97217.75;4998431;28;20042;-77
2023/12/02 02:07:54;;;;;;;1.10;1.10;;;;;;;-0.89;86.89;97228.97;5001281;28;20038;-76
2023/12/02 02:10:21;;;;;;;1.10;1.10;;;;;;;-0.95;87.07;97229.56;5000201;28;20080;-77
2023/12/02 02:12:46;;;;;;;1.20;1.20;;;;;;;-0.93;86.87;97217.44;5001292;28;20514;-76
2023/12/02 02:15:12;;;;;;;1.10;1.10;;;;;;;-0.79;86.99;97207.66;4998875;28;20042;-77
2023/12/02 02:17:37;;;;;;;1.10;1.10;;;;;;;-0.94;86.49;97210.44;5002412;28;20638;-76
2023/12/02 02:20:04;;;;;;;1.10;1.10;;;;;;;-1.00;87.42;97231.06;5001698;28;20054;-76
2023/12/02 02:22:29;;;;;;;1.20;1.20;;;;;;;-1.02;86.30;97230.09;4979301;28;20033;-77
2023/12/02 02:24:55;;;;;;;1.20;1.20;;;;;;;-1.05;86.55;97235.19;4999020;28;20038;-76
2023/12/02 02:27:20;;;;;;;1.08;1.08;;;;;;;-1.01;87.06;97237.09;5002830;28;20097;-76
2023/12/02 02:29:45;;;;;;;1.00;1.00;;;;;;;-0.87;86.17;97225.59;5004157;28;20041;-78
2023/12/02 02:32:11;;;;;;;1.10;1.10;;;;;;;-0.81;86.17;97220.69;5001436;28;20415;-78
2023/12/02 02:34:41;;;;;;;1.10;1.10;;;;;;;-0.87;86.92;97217.75;5002812;28;20029;-78
2023/12/02 02:37:07;;;;;;;1.08;1.08;;;;;;;-0.85;86.47;97228.31;5003414;28;20037;-76
2023/12/02 02:39:33;;;;;;;1.10;1.10;;;;;;;-0.90;87.16;97235.03;5003341;28;20107;-77
2023/12/02 02:41:58;;;;;;;1.20;1.20;;;;;;;-0.88;87.02;97238.63;5004825;28;20104;-76
2023/12/02 02:44:24;;;;;;;1.10;1.10;;;;;;;-0.95;87.66;97232.19;5001184;28;20038;-76
2023/12/02 02:46:49;;;;;;;1.10;1.10;;;;;;;-0.95;87.82;97232.19;5004502;28;20159;-76
2023/12/02 02:49:15;;;;;;;1.10;1.10;;;;;;;-0.87;86.77;97248.25;5000845;28;20053;-76
2023/12/02 02:51:40;;;;;;;1.10;1.10;;;;;;;-1.00;86.41;97252.00;5002607;28;20069;-75
2023/12/02 02:54:06;;;;;;;1.10;1.10;;;;;;;-0.98;87.12;97250.34;5000990;28;20489;-76
2023/12/02 02:56:31;;;;;;;1.10;1.10;;;;;;;-1.02;86.83;97250.13;5002308;28;20053;-76
2023/12/02 02:58:57;;;;;;;1.10;1.10;;;;;;;-0.96;86.56;97250.41;5004173;28;20042;-76
2023/12/02 03:01:22;;;;;;;1.00;1.00;;;;;;;-0.93;86.91;97248.88;4999980;28;20046;-76
2023/12/02 03:03:48;;;;;;;1.10;1.10;;;;;;;-0.89;86.73;97248.19;4997851;28;20088;-76
2023/12/02 03:06:16;;;;;;;1.10;1.10;;;;;;;-0.87;86.30;97253.50;5002126;28;20038;-76
2023/12/02 03:08:42;;;;;;;1.10;1.10;;;;;;;-0.93;85.87;97254.09;5002408;28;20254;-76
2023/12/02 03:11:07;;;;;;;1.10;1.10;;;;;;;-0.81;85.82;97251.19;5003354;28;20836;-76
2023/12/02 03:13:33;;;;;;;1.10;1.10;;;;;;;-0.89;86.60;97256.03;5003186;28;20033;-75
2023/12/02 03:15:58;;;;;;;1.10;1.10;;;;;;;-0.94;85.96;97254.03;5002933;28;20038;-76
2023/12/02 03:18:23;;;;;;;1.10;1.10;;;;;;;-1.00;85.80;97257.25;4999962;28;20066;-78
2023/12/02 03:20:49;;;;;;;1.10;1.10;;;;;;;-1.02;86.39;97251.03;4999661;28;20044;-76
2023/12/02 03:23:15;;;;;;;1.20;1.20;;;;;;;-0.97;86.48;97254.75;5003008;28;20034;-76
2023/12/02 03:25:40;;;;;;;1.02;1.02;;;;;;;-0.97;86.86;97240.78;5004518;28;20068;-76
2023/12/02 03:28:06;;;;;;;1.10;1.10;;;;;;;-1.07;86.80;97242.94;5004057;28;20116;-75
2023/12/02 03:30:32;;;;;;;1.10;1.10;;;;;;;-1.01;87.10;97238.81;5000901;28;20269;-78
2023/12/02 03:32:59;;;;;;;1.10;1.10;;;;;;;-0.97;86.88;97240.78;5004017;28;20041;-76
2023/12/02 03:35:24;;;;;;;1.20;1.20;;;;;;;-0.91;86.55;97249.84;5000635;28;20093;-76
2023/12/02 03:37:49;;;;;;;1.10;1.10;;;;;;;-1.02;86.48;97255.34;5000922;28;20370;-76
2023/12/02 03:40:15;;;;;;;1.17;1.17;;;;;;;-1.00;86.27;97254.63;5000810;28;20652;-77
2023/12/02 03:42:40;;;;;;;1.20;1.20;;;;;;;-0.98;86.51;97260.81;4997644;28;20866;-76
2023/12/02 03:45:06;;;;;;;1.10;1.10;;;;;;;-1.02;86.14;97260.59;5002534;28;20125;-77
2023/12/02 03:47:32;;;;;;;1.10;1.10;;;;;;;-0.97;86.45;97256.47;5003925;28;20121;-76
2023/12/02 03:49:58;;;;;;;1.20;1.20;;;;;;;-0.94;86.64;97261.88;5001675;28;20037;-77
2023/12/02 03:52:23;;;;;;;1.10;1.10;;;;;;;-0.93;86.61;97269.81;5002006;28;20383;-77
2023/12/02 03:54:49;;;;;;;1.20;1.20;;;;;;;-1.08;86.42;97269.03;5001995;28;20030;-76
2023/12/02 03:57:15;;;;;;;1.20;1.20;;;;;;;-1.04;87.65;97265.75;5001835;28;20567;-77
2023/12/02 03:59:40;;;;;;;1.00;1.00;;;;;;;-1.10;87.21;97271.59;5000933;28;20034;-77
2023/12/02 04:02:05;;;;;;;1.10;1.10;;;;;;;-1.12;87.60;97269.72;5001416;28;20033;-77
2023/12/02 04:04:31;;;;;;;1.00;1.00;;;;;;;-1.02;87.35;97266.72;5000638;28;20500;-77
2023/12/02 04:06:56;;;;;;;1.20;1.20;;;;;;;-1.08;87.90;97275.16;5003743;28;20475;-77
2023/12/02 04:09:22;;;;;;;1.10;1.10;;;;;;;-1.03;88.40;97275.41;5004978;28;20045;-77
2023/12/02 04:11:55;;;;;;;1.10;1.10;;;;;;;-1.13;88.58;97288.84;5001203;28;20096;-77
2023/12/02 04:14:20;;;;;;;1.10;1.10;;;;;;;-1.09;88.94;97289.09;5000832;28;20056;-78
2023/12/02 04:16:46;;;;;;;1.10;1.10;;;;;;;-1.09;88.21;97296.03;4997990;28;20050;-77
2023/12/02 04:19:12;;;;;;;1.10;1.10;;;;;;;-0.99;88.29;97290.44;4999043;28;20068;-77
2023/12/02 04:21:44;;;;;;;1.10;1.10;;;;;;;-1.03;88.33;97293.72;5002526;28;20038;-77
2023/12/02 04:24:10;;;;;;;1.10;1.10;;;;;;;-1.06;88.23;97293.56;4996912;28;20029;-77
2023/12/02 04:26:37;;;;;;;1.10;1.10;;;;;;;-1.15;88.40;97298.31;5000595;28;20038;-77
2023/12/02 04:29:07;;;;;;;1.20;1.20;;;;;;;-1.11;88.00;97310.75;5000223;28;20041;-77
2023/12/02 04:31:33;;;;;;;1.10;1.10;;;;;;;-1.13;87.97;97317.63;5002282;28;20069;-77
2023/12/02 04:33:59;;;;;;;1.10;1.10;;;;;;;-1.18;87.70;97321.75;5000917;28;20072;-77
2023/12/02 04:36:24;;;;;;;1.10;1.10;;;;;;;-1.25;88.75;97332.69;5002325;28;20168;-77
2023/12/02 04:38:50;;;;;;;1.10;1.10;;;;;;;-1.26;87.86;97341.38;5002016;28;20117;-77
2023/12/02 04:41:15;;;;;;;1.10;1.10;;;;;;;-1.27;88.45;97343.09;5000866;28;20032;-77
2023/12/02 04:43:41;;;;;;;1.20;1.20;;;;;;;-1.25;88.96;97345.78;4998678;28;20476;-77
2023/12/02 04:46:07;;;;;;;1.10;1.10;;;;;;;-1.19;88.28;97346.13;4999625;28;20075;-77
2023/12/02 04:48:34;;;;;;;1.10;1.10;;;;;;;-1.13;88.29;97351.66;4999636;28;20042;-77
2023/12/02 04:50:59;;;;;;;1.10;1.10;;;;;;;-1.17;88.41;97355.81;5002568;28;20074;-77
2023/12/02 04:53:27;;;;;;;1.10;1.10;;;;;;;-1.11;87.86;97352.63;5002278;28;20046;-77
2023/12/02 04:55:52;;;;;;;1.10;1.10;;;;;;;-1.20;87.27;97350.41;5001595;28;20103;-77
2023/12/02 04:58:19;;;;;;;1.10;1.10;;;;;;;-1.20;88.36;97358.28;4999295;28;20050;-77
2023/12/02 05:00:44;;;;;;;1.20;1.20;;;;;;;-1.10;88.74;97354.44;5000777;28;20038;-77
2023/12/02 05:03:10;;;;;;;1.10;1.10;;;;;;;-1.09;88.33;97357.13;5000600;28;20479;-78
2023/12/02 05:05:36;;;;;;;1.10;1.10;;;;;;;-1.12;89.43;97371.75;4995816;28;20053;-77
2023/12/02 05:08:01;;;;;;;1.10;1.10;;;;;;;-1.05;88.88;97366.94;5000016;28;20030;-77
2023/12/02 05:10:27;;;;;;;1.10;1.10;;;;;;;-1.07;88.83;97381.66;4999238;28;20147;-76
2023/12/02 05:12:52;;;;;;;1.10;1.10;;;;;;;-1.21;88.78;97380.03;5002811;28;20046;-76
2023/12/02 05:15:18;;;;;;;1.00;1.00;;;;;;;-1.09;88.56;97383.31;4994165;28;20399;-77
2023/12/02 05:17:45;;;;;;;1.10;1.10;;;;;;;-1.13;87.84;97390.91;4998791;28;20435;-76
2023/12/02 05:20:13;;;;;;;1.10;1.10;;;;;;;-1.14;87.95;97389.13;4994100;28;20124;-76
2023/12/02 05:22:39;;;;;;;1.10;1.10;;;;;;;-1.19;87.99;97390.59;4995018;28;20501;-76
2023/12/02 05:25:06;;;;;;;1.02;1.02;;;;;;;-1.16;87.81;97389.00;4999008;28;20080;-76
2023/12/02 05:27:32;;;;;;;1.20;1.20;;;;;;;-1.12;88.21;97388.34;4998322;28;20049;-77
2023/12/02 05:29:58;;;;;;;1.10;1.10;;;;;;;-1.12;88.07;97392.69;4998952;28;20291;-77
2023/12/02 05:32:23;;;;;;;1.10;1.10;;;;;;;-1.12;87.62;97383.13;4996607;28;20060;-77
2023/12/02 05:34:49;;;;;;;1.10;1.10;;;;;;;-1.19;87.76;97396.72;4999733;28;20708;-77
2023/12/02 05:37:14;;;;;;;1.10;1.10;;;;;;;-1.21;88.45;97386.97;4995430;28;20555;-77
2023/12/02 05:39:42;;;;;;;1.10;1.10;;;;;;;-1.21;88.39;97386.97;5001364;28;20041;-77
2023/12/02 05:42:08;;;;;;;1.00;1.00;;;;;;;-1.22;88.25;97391.31;4995374;28;20095;-76
2023/12/02 05:44:33;;;;;;;1.10;1.10;;;;;;;-1.31;88.67;97402.19;4998229;28;20030;-77
2023/12/02 05:46:59;;;;;;;1.10;1.10;;;;;;;-1.25;88.83;97401.59;4997412;28;20041;-78
2023/12/02 05:49:24;;;;;;;1.10;1.10;;;;;;;-1.21;88.23;97405.28;4997442;28;20128;-78
2023/12/02 05:51:50;;;;;;;1.10;1.10;;;;;;;-1.32;88.48;97416.09;5000181;28;20150;-78
2023/12/02 05:54:15;;;;;;;1.10;1.10;;;;;;;-1.28;88.32;97421.50;4991694;28;20080;-77
2023/12/02 05:56:41;;;;;;;1.10;1.10;;;;;;;-1.28;87.91;97431.97;4996881;28;20452;-77
2023/12/02 05:59:06;;;;;;;1.10;1.10;;;;;;;-1.34;89.13;97433.44;4999367;28;20042;-77
2023/12/02 06:01:31;;;;;;;1.20;1.20;;;;;;;-1.32;89.46;97436.13;5002099;28;20959;-78
2023/12/02 06:03:57;;;;;;;1.10;1.10;;;;;;;-1.31;87.33;97430.97;5005728;28;20567;-78
2023/12/02 06:06:22;;;;;;;1.10;1.10;;;;;;;-1.35;87.50;97442.06;4984995;28;20038;-78
2023/12/02 06:08:48;;;;;;;1.10;1.10;;;;;;;-1.34;87.80;97443.91;5001539;28;20137;-78
2023/12/02 06:11:13;;;;;;;1.20;1.20;;;;;;;-1.34;87.79;97446.53;5004373;28;20048;-79
2023/12/02 06:13:39;;;;;;;1.10;1.10;;;;;;;-1.28;87.56;97445.06;5001376;28;20038;-79
2023/12/02 06:16:05;;;;;;;1.10;1.10;;;;;;;-1.35;86.97;97442.06;5001115;28;20049;-79
2023/12/02 06:18:33;;;;;;;1.10;1.10;;;;;;;-1.43;87.57;97450.34;5002719;28;20545;-78
2023/12/02 06:21:01;;;;;;;1.10;1.10;;;;;;;-1.41;88.14;97448.72;5002988;28;20404;-78
2023/12/02 06:23:29;;;;;;;1.10;1.10;;;;;;;-1.32;88.24;97454.44;5000419;28;20038;-78
2023/12/02 06:25:54;;;;;;;1.10;1.10;;;;;;;-1.30;88.10;97456.31;5003603;28;20046;-78
2023/12/02 06:28:20;;;;;;;1.10;1.10;;;;;;;-1.28;88.60;97463.38;5003569;28;20034;-78
2023/12/02 06:30:45;;;;;;;1.10;1.10;;;;;;;-1.26;88.41;97464.34;5000430;28;20066;-78
2023/12/02 06:33:11;;;;;;;1.10;1.10;;;;;;;-1.31;88.68;97464.09;4998681;28;20586;-78
2023/12/02 06:35:36;;;;;;;1.10;1.10;;;;;;;-1.28;88.09;97465.97;5002195;28;20495;-78
2023/12/02 06:38:02;;;;;;;1.10;1.10;;;;;;;-1.36;87.76;97461.22;5005081;28;20915;-77
2023/12/02 06:40:28;;;;;;;1.20;1.20;;;;;;;-1.45;87.78;97463.31;5005134;28;20046;-79
2023/12/02 06:42:53;;;;;;;1.10;1.10;;;;;;;-1.52;87.45;97463.81;4982061;28;20076;-78
2023/12/02 06:45:19;;;;;;;1.20;1.20;;;;;;;-1.45;86.78;97471.16;4997890;28;20128;-78
2023/12/02 06:47:44;;;;;;;1.10;1.10;;;;;;;-1.44;87.41;97474.69;5000882;28;20094;-78
2023/12/02 06:50:10;;;;;;;1.10;1.10;;;;;;;-1.56;86.83;97477.53;4999004;28;20126;-78
2023/12/02 06:52:35;;;;;;;1.10;1.10;;;;;;;-1.56;86.98;97480.16;5000231;28;20042;-80
2023/12/02 06:55:01;;;;;;;1.10;1.10;;;;;;;-1.55;86.80;97484.56;4999801;28;20491;-80
2023/12/02 06:57:26;;;;;;;1.10;1.10;;;;;;;-1.62;87.63;97482.44;5005284;28;20113;-80
2023/12/02 06:59:52;;;;;;;1.10;1.10;;;;;;;-1.66;87.20;97485.69;5003811;28;20041;-80
2023/12/02 07:02:18;;;;;;;1.10;1.10;;;;;;;-1.61;86.95;97490.34;5002696;28;20091;-80
2023/12/02 07:04:45;;;;;;;1.10;1.10;;;;;;;-1.55;87.18;97495.03;5004082;28;20048;-80
2023/12/02 07:07:12;;;;;;;1.08;1.08;;;;;;;-1.56;87.71;97501.97;5002338;28;20064;-79
2023/12/02 07:09:38;;;;;;;1.20;1.20;;;;;;;-1.60;86.99;97497.38;5000530;28;20042;-80
2023/12/02 07:12:04;;;;;;;1.10;1.10;;;;;;;-1.59;87.59;97504.41;5003227;28;20033;-80
2023/12/02 07:14:32;;;;;;;1.10;1.10;;;;;;;-1.54;88.33;97502.03;5000449;28;20034;-79
2023/12/02 07:17:09;;;;;;;1.10;1.10;;;;;;;-1.56;87.94;97509.81;4986705;28;20072;-81
2023/12/02 07:19:35;;;;;;;1.15;1.15;;;;;;;-1.46;88.23;97516.47;4985946;28;20096;-79
2023/12/02 07:22:00;;;;;;;1.10;1.10;;;;;;;-1.47;87.23;97519.00;5003745;28;20033;-80
2023/12/02 07:24:26;;;;;;;1.10;1.10;;;;;;;-1.46;86.31;97526.03;5000603;28;20159;-79
2023/12/02 07:26:52;;;;;;;1.10;1.10;;;;;;;-1.54;85.94;97538.66;5000076;28;20038;-82
2023/12/02 07:29:18;;;;;;;1.10;1.10;;;;;;;-1.61;85.73;97537.44;5002879;28;20037;-81
2023/12/02 07:31:45;;;;;;;1.10;1.10;;;;;;;-1.75;85.29;97542.69;5000065;28;20116;-80
2023/12/02 07:34:11;;;;;;;1.10;1.10;;;;;;;-1.86;85.58;97544.69;5002441;28;20049;-80
2023/12/02 07:36:39;;;;;;;1.10;1.10;;;;;;;-1.88;86.73;97552.44;5001555;28;20046;-79
2023/12/02 07:39:04;;;;;;;1.20;1.20;;;;;;;-1.88;85.80;97549.81;5000218;28;20026;-79
2023/12/02 07:41:30;;;;;;;1.10;1.10;;;;;;;-1.73;86.35;97556.72;4999492;28;20389;-79
2023/12/02 07:43:55;;;;;;;1.20;1.20;;;;;;;-1.68;86.99;97560.50;5004520;28;20041;-80
2023/12/02 07:46:21;;;;;;;1.20;1.20;;;;;;;-1.73;85.99;97564.56;5000709;28;20034;-80
2023/12/02 07:48:49;;;;;;;1.20;1.20;;;;;;;-1.66;86.45;97574.59;4997623;28;20033;-79
2023/12/02 07:51:20;;;;;;;1.20;1.20;;;;;;;-1.54;86.54;97572.66;5003088;28;20479;-79
2023/12/02 07:54:09;;;;;;;1.20;1.20;;;;;;;-1.46;86.02;97576.63;5004266;28;20065;-80
2023/12/02 07:56:43;;;;;;;1.17;1.17;;;;;;;-1.51;86.22;97585.03;5000461;28;20061;-80
2023/12/02 07:59:12;;;;;;;1.10;1.10;;;;;;;-1.50;85.83;97582.47;5001284;28;20042;-79
2023/12/02 08:01:37;;;;;;;1.10;1.10;;;;;;;-1.56;85.70;97587.38;4999932;28;20598;-79
2023/12/02 08:04:03;;;;;;;1.20;1.20;;;;;;;-1.59;86.08;97584.56;5001611;28;20046;-79
2023/12/02 08:06:28;;;;;;;1.10;1.10;;;;;;;-1.65;85.13;97590.34;4997808;28;20042;-79
2023/12/02 08:08:54;;;;;;;1.13;1.13;;;;;;;-1.66;83.77;97592.91;4982682;28;20088;-78
2023/12/02 08:11:20;;;;;;;1.20;1.20;;;;;;;-1.69;84.16;97600.56;4994070;28;20072;-79
2023/12/02 08:13:47;;;;;;;1.00;1.00;;;;;;;-1.58;84.64;97604.72;5000493;28;20558;-79
2023/12/02 08:16:13;;;;;;;1.20;1.20;;;;;;;-1.64;84.81;97614.78;5000410;28;20040;-78
2023/12/02 08:18:38;;;;;;;1.10;1.10;;;;;;;-1.63;84.16;97609.66;5016835;28;20033;-77
2023/12/02 08:21:04;;;;;;;1.20;1.20;;;;;;;-1.63;84.13;97611.34;4999831;28;20121;-78
2023/12/02 08:23:29;;;;;;;1.10;1.10;;;;;;;-1.58;85.04;97615.16;5000186;28;20045;-79
2023/12/02 08:25:54;;;;;;;1.20;1.20;;;;;;;-1.42;84.04;97620.44;4986145;28;20057;-78
2023/12/02 08:28:20;;;;;;;1.20;1.20;;;;;;;-1.41;84.28;97624.88;4992989;28;20325;-79
2023/12/02 08:30:45;;;;;;;1.10;1.10;;;;;;;-1.31;83.96;97619.34;4998997;28;20037;-79
2023/12/02 08:33:11;;;;;;;1.10;1.10;;;;;;;-1.30;84.11;97634.22;4996010;28;20555;-80
2023/12/02 08:35:36;;;;;;;1.20;1.20;;;;;;;-1.20;83.49;97632.13;4998647;28;20137;-79
2023/12/02 08:38:01;;;;;;;1.10;1.10;;;;;;;-1.34;83.03;97634.88;4997941;28;20110;-81
2023/12/02 08:40:28;;;;;;;1.10;1.10;;;;;;;-1.37;83.47;97646.88;4997078;28;20056;-81
2023/12/02 08:42:54;;;;;;;1.20;1.20;;;;;;;-1.44;82.55;97658.69;4994056;28;20095;-81
2023/12/02 08:45:19;;;;;;;1.10;1.10;;;;;;;-1.62;82.54;97660.25;4999268;28;20037;-80
2023/12/02 08:47:44;;;;;;;1.20;1.20;;;;;;;-1.47;82.44;97658.53;4999583;28;20119;-80
2023/12/02 08:50:10;;;;;;;1.10;1.10;;;;;;;-1.57;82.92;97666.66;5002361;28;20072;-79
2023/12/02 08:52:35;;;;;;;1.20;1.20;;;;;;;-1.68;83.54;97660.75;4997001;28;20169;-81
2023/12/02 08:55:01;;;;;;;1.10;1.10;;;;;;;-1.79;83.45;97671.41;4998776;28;20029;-79
2023/12/02 08:57:27;;;;;;;1.15;1.15;;;;;;;-1.75;83.67;97673.41;4999374;28;20038;-80
2023/12/02 08:59:54;;;;;;;1.17;1.17;;;;;;;-1.75;84.43;97678.63;4984087;28;20761;-80
2023/12/02 09:02:20;;;;;;;1.20;1.20;;;;;;;-1.69;83.92;97679.88;4998813;28;20101;-79
2023/12/02 09:04:47;;;;;;;1.17;1.17;;;;;;;-1.61;83.98;97688.19;5004438;28;20073;-80
2023/12/02 09:07:12;;;;;;;1.20;1.20;;;;;;;-1.52;82.35;97693.06;5000012;28;20113;-80
2023/12/02 09:09:38;;;;;;;1.10;1.10;;;;;;;-1.58;83.79;97693.63;4997976;28;21082;-80
2023/12/02 09:12:04;;;;;;;1.10;1.10;;;;;;;-1.52;83.11;97700.91;4996222;28;20537;-80
2023/12/02 09:14:29;;;;;;;1.20;1.20;;;;;;;-1.66;82.73;97705.34;4998047;28;20037;-79
2023/12/02 09:16:55;;;;;;;1.20;1.20;;;;;;;-1.72;84.45;97710.22;5002006;28;20056;-80
2023/12/02 09:19:48;;;;;;;1.10;1.10;;;;;;;-1.58;82.42;97711.94;4999468;28;20665;-80
2023/12/02 09:22:46;;;;;;;1.20;1.20;;;;;;;-1.48;82.43;97723.84;4995227;28;20074;-80
2023/12/02 09:25:31;;;;;;;1.10;1.10;;;;;;;-1.53;81.99;97730.47;4999863;28;20033;-80
2023/12/02 09:28:06;;;;;;;1.10;1.10;;;;;;;-1.40;81.99;97733.91;4993491;28;20728;-79
2023/12/02 09:30:39;;;;;;;1.20;1.20;;;;;;;-1.55;81.55;97731.28;4998950;28;20861;-79
2023/12/02 09:33:05;;;;;;;1.17;1.17;;;;;;;-1.48;82.91;97736.91;4983303;28;20038;-79
2023/12/02 09:35:32;;;;;;;1.13;1.13;;;;;;;-1.28;82.45;97745.94;5000740;28;20034;-79
2023/12/02 09:37:59;;;;;;;1.10;1.10;;;;;;;-1.28;81.84;97741.59;5004677;28;20061;-79
2023/12/02 09:40:55;;;;;;;1.10;1.10;;;;;;;-1.16;82.13;97749.25;5002512;28;20026;-79
2023/12/02 09:43:37;;;;;;;1.10;1.10;;;;;;;-1.20;81.84;97739.41;5001600;28;20045;-79
2023/12/02 09:46:30;;;;;;;1.20;1.20;;;;;;;-1.20;80.48;97742.03;5005826;28;20045;-79
2023/12/02 09:48:58;;;;;;;1.20;1.20;;;;;;;-1.17;80.08;97743.13;5000907;28;20055;-79
2023/12/02 09:51:41;;;;;;;1.20;1.20;;;;;;;-1.08;80.13;97748.00;5006219;28;20103;-79
2023/12/02 09:54:07;;;;;;;1.20;1.20;;;;;;;-1.27;79.73;97747.72;5003573;28;20065;-80
2023/12/02 09:56:44;;;;;;;1.10;1.10;;;;;;;-1.30;80.19;97754.56;5006137;28;20835;-81
2023/12/02 09:59:28;;;;;;;;;;;;;;;-1.34;80.80;97747.38;5008295;28;20084;-78
2023/12/02 10:02:20;;;;;;;1.10;1.10;;;;;;;-1.48;79.94;97756.13;4997378;28;19992;-80
2023/12/02 10:05:08;;;;;;;1.10;1.10;;;;;;;-1.49;80.28;97756.00;5006930;28;20029;-79
2023/12/02 10:07:49;;;;;;;1.10;1.10;;;;;;;-1.49;81.36;97762.13;5004246;28;20077;-79
2023/12/02 10:10:21;;;;;;;1.10;1.10;;;;;;;-1.41;82.12;97763.50;5009017;28;20046;-79
2023/12/02 10:12:46;;;;;;;1.10;1.10;;;;;;;-1.33;79.82;97767.50;5006229;28;20584;-79
2023/12/02 10:15:12;;;;;;;1.17;1.17;;;;;;;-1.39;80.98;97754.06;5003289;28;20027;-78
2023/12/02 10:17:55;;;;;;;1.20;1.20;;;;;;;-1.48;81.15;97768.31;5005734;28;20491;-78
2023/12/02 10:20:26;;;;;;;1.10;1.10;;;;;;;-1.63;82.27;97778.72;5005865;28;20053;-78
2023/12/02 10:22:57;;;;;;;1.13;1.13;;;;;;;-1.66;82.27;97773.31;5006442;28;20038;-78
2023/12/02 10:25:38;;;;;;;1.10;1.10;;;;;;;-1.52;82.38;97772.44;5005728;28;20052;-78
2023/12/02 10:28:22;;;;;;;1.10;1.10;;;;;;;-1.35;82.41;97769.09;5006184;28;20038;-79
2023/12/02 10:30:51;;;;;;;1.10;1.10;;;;;;;-1.47;81.35;97775.34;5005072;28;20045;-78
2023/12/02 10:33:40;;;;;;;1.20;1.20;;;;;;;-1.41;81.01;97773.97;5003623;28;20030;-78
2023/12/02 10:36:10;;;;;;;1.20;1.20;;;;;;;-1.27;82.04;97779.13;5006671;28;20072;-78
2023/12/02 10:38:41;;;;;;;1.15;1.15;;;;;;;-1.45;80.89;97781.53;5005122;28;20167;-78
2023/12/02 10:41:16;;;;;;;1.20;1.20;;;;;;;-1.44;81.11;97780.72;5007221;28;20034;-78
2023/12/02 10:43:42;;;;;;;1.02;1.02;;;;;;;-1.35;80.30;97781.28;5005782;28;20039;-78
2023/12/02 10:46:08;;;;;;;1.10;1.10;;;;;;;-1.35;81.09;97783.88;5005417;28;20041;-78
2023/12/02 10:48:39;;;;;;;1.20;1.20;;;;;;;-1.36;81.16;97790.84;4999271;28;20119;-78
2023/12/02 10:51:07;;;;;;;1.20;1.20;;;;;;;-1.27;80.53;97790.50;5001742;28;20109;-78
2023/12/02 10:53:34;;;;;;;1.00;1.00;;;;;;;-1.33;80.11;97791.03;5000912;28;20037;-78
2023/12/02 10:56:05;;;;;;;1.10;1.10;;;;;;;-1.21;80.22;97801.31;5001762;28;20037;-77
2023/12/02 10:58:32;;;;;;;1.20;1.20;;;;;;;-1.16;79.70;97798.97;5017559;28;20235;-78
2023/12/02 11:01:01;;;;;;;1.20;1.20;;;;;;;-0.87;78.76;97795.44;5003678;28;20037;-81
2023/12/02 11:03:42;;;;;;;1.20;1.20;;;;;;;-1.00;79.87;97804.31;5001842;28;20073;-79
2023/12/02 11:06:31;;;;;;;1.10;1.10;;;;;;;-0.87;77.99;97804.19;5000724;28;20034;-78
2023/12/02 11:09:16;;;;;;;1.10;1.10;;;;;;;-0.99;77.76;97808.72;4998617;28;20073;-78
2023/12/02 11:11:44;;;;;;;1.20;1.20;;;;;;;-1.12;78.17;97814.06;5002190;28;20041;-78
2023/12/02 11:14:16;;;;;;;1.10;1.10;;;;;;;-1.04;79.21;97815.41;5000043;28;20499;-79
2023/12/02 11:16:54;;;;;;;1.10;1.10;;;;;;;-1.08;78.38;97822.19;4997301;28;20105;-79
2023/12/02 11:19:36;;;;;;;1.20;1.20;;;;;;;-1.15;78.96;97821.72;4998206;28;20138;-78
2023/12/02 11:22:32;;;;;;;1.10;1.10;;;;;;;-1.42;79.88;97837.56;5004547;28;20037;-79
2023/12/02 11:25:19;;;;;;;1.10;1.10;;;;;;;-1.30;79.29;97838.28;4997884;28;20133;-79
2023/12/02 11:28:27;;;;;;;1.20;1.20;;;;;;;-1.59;79.59;97831.28;5000868;28;20038;-78
2023/12/02 11:31:01;;;;;;;1.20;1.20;;;;;;;-1.58;80.26;97840.06;4938253;28;20082;-77
2023/12/02 11:33:36;;;;;;;1.15;1.15;;;;;;;-1.47;80.82;97846.84;4986606;28;20066;-78
2023/12/02 11:36:14;;;;;;;1.10;1.10;;;;;;;-1.42;81.32;97845.41;5001002;28;20039;-78
2023/12/02 11:38:55;;;;;;;1.10;1.10;;;;;;;-1.40;81.13;97854.25;5018030;28;20721;-79